Time;durP1;ratioP1;P1;durP2;ratioP2;P2;SDS_P1;SDS_P2;PMS_P1;PMS_P2;Temp;Humidity;BMP_temperature;BMP_pressure;BME280_temperature;BME280_humidity;BME280_pressure;Samples;Min_cycle;Max_cycle;Signal;HPM_P1;HPM_P2
2022/06/07 00:01:15;;;;;;;13.40;8.25;;;;;;;15.34;100.00;96720.81;4989180;28;20506;-69
2022/06/07 00:03:41;;;;;;;15.82;8.80;;;;;;;15.36;100.00;96726.72;5001326;28;20052;-68
2022/06/07 00:06:07;;;;;;;12.05;9.60;;;;;;;15.31;100.00;96722.41;4993245;28;20038;-69
2022/06/07 00:08:32;;;;;;;18.17;9.77;;;;;;;15.20;100.00;96711.41;4998477;28;20048;-69
2022/06/07 00:10:58;;;;;;;15.95;8.73;;;;;;;15.14;100.00;96715.72;4994199;28;20061;-69
2022/06/07 00:13:24;;;;;;;20.10;10.40;;;;;;;15.09;100.00;96713.41;4985055;28;20928;-69
2022/06/07 00:15:50;;;;;;;15.43;10.50;;;;;;;15.11;100.00;96716.53;4996890;28;20161;-69
2022/06/07 00:18:15;;;;;;;18.48;10.32;;;;;;;15.06;100.00;96723.22;4988670;28;20125;-70
2022/06/07 00:20:42;;;;;;;16.48;11.10;;;;;;;15.01;100.00;96714.56;4996546;28;20435;-70
2022/06/07 00:23:12;;;;;;;15.57;10.73;;;;;;;14.90;100.00;96700.78;4995572;28;20049;-69
2022/06/07 00:25:38;;;;;;;15.60;10.60;;;;;;;14.81;100.00;96683.88;4999380;28;20046;-69
2022/06/07 00:28:04;;;;;;;19.15;11.15;;;;;;;14.81;100.00;96673.63;4997359;28;20044;-67
2022/06/07 00:30:31;;;;;;;17.48;11.45;;;;;;;14.85;100.00;96674.38;4996996;28;20046;-68
2022/06/07 00:32:57;;;;;;;15.73;11.63;;;;;;;14.89;100.00;96669.69;5004573;28;20105;-70
2022/06/07 00:35:23;;;;;;;15.30;10.75;;;;;;;14.86;100.00;96667.69;5000493;28;20604;-70
2022/06/07 00:37:48;;;;;;;15.82;11.27;;;;;;;14.87;100.00;96666.53;5011636;28;20108;-69
2022/06/07 00:40:15;;;;;;;14.00;10.13;;;;;;;14.93;100.00;96666.91;4996978;28;20042;-68
2022/06/07 00:42:41;;;;;;;18.67;11.40;;;;;;;14.86;100.00;96661.41;5002213;28;20145;-70
2022/06/07 00:45:13;;;;;;;15.05;10.10;;;;;;;14.83;100.00;96662.19;4996989;28;20042;-69
2022/06/07 00:47:39;;;;;;;16.90;11.15;;;;;;;14.82;100.00;96655.09;4997318;28;20096;-69
2022/06/07 00:50:33;;;;;;;16.60;10.85;;;;;;;14.84;100.00;96669.28;4994552;28;20391;-70
2022/06/07 00:52:59;;;;;;;15.85;11.18;;;;;;;14.82;100.00;96663.38;4982159;28;20043;-69
2022/06/07 00:55:25;;;;;;;13.75;10.20;;;;;;;14.92;100.00;96665.31;4993598;28;20128;-71
2022/06/07 00:57:52;;;;;;;21.13;11.18;;;;;;;14.95;100.00;96663.78;5001873;28;20510;-70
2022/06/07 01:00:22;;;;;;;13.23;10.85;;;;;;;14.96;100.00;96659.81;4991647;28;20038;-70
2022/06/07 01:02:48;;;;;;;15.25;10.18;;;;;;;15.01;100.00;96660.19;5003348;28;20042;-69
2022/06/07 01:05:14;;;;;;;11.80;9.80;;;;;;;14.97;100.00;96653.91;5003484;28;20054;-68
2022/06/07 01:13:08;;;;;;;14.82;9.43;;;;;;;15.09;100.00;96647.97;4999743;28;20443;-70
2022/06/07 01:15:33;;;;;;;14.32;8.52;;;;;;;14.99;100.00;96648.00;4995019;28;20035;-71
2022/06/07 01:17:59;;;;;;;16.45;10.30;;;;;;;14.90;100.00;96637.38;5002769;28;20065;-72
2022/06/07 01:20:25;;;;;;;11.57;9.90;;;;;;;14.87;100.00;96630.69;4991826;28;20088;-71
2022/06/07 01:22:51;;;;;;;14.30;10.75;;;;;;;14.86;100.00;96629.09;5001591;28;20073;-71
2022/06/07 01:25:16;;;;;;;12.95;10.25;;;;;;;15.00;100.00;96617.25;4996581;28;20042;-70
2022/06/07 01:27:42;;;;;;;12.82;9.88;;;;;;;15.02;100.00;96617.66;4997849;28;20195;-70
2022/06/07 01:30:08;;;;;;;13.50;9.43;;;;;;;15.10;100.00;96618.41;4990508;28;20029;-71
2022/06/07 01:32:33;;;;;;;12.85;9.40;;;;;;;15.02;100.00;96619.63;4999191;28;20038;-70
2022/06/07 01:34:59;;;;;;;16.63;9.40;;;;;;;15.00;100.00;96599.91;4965260;28;20042;-69
2022/06/07 01:37:24;;;;;;;15.80;9.18;;;;;;;14.99;100.00;96598.34;5010379;28;20046;-70
2022/06/07 01:42:34;;;;;;;14.70;9.90;;;;;;;15.02;100.00;96611.34;4999886;28;20030;-70
2022/06/07 01:44:59;;;;;;;13.13;8.90;;;;;;;15.12;100.00;96606.97;4997379;28;20089;-68
2022/06/07 01:47:29;;;;;;;11.63;9.15;;;;;;;15.20;100.00;96609.31;4963424;28;21326;-69
2022/06/07 01:49:55;;;;;;;11.40;8.70;;;;;;;15.16;100.00;96608.56;4993030;28;20046;-68
2022/06/07 01:52:24;;;;;;;12.38;8.55;;;;;;;15.23;100.00;96613.25;4986037;28;20045;-68
2022/06/07 01:54:51;;;;;;;15.70;8.15;;;;;;;15.41;100.00;96613.97;4996423;28;20398;-68
2022/06/07 01:57:18;;;;;;;10.77;7.20;;;;;;;15.62;100.00;96609.53;4984253;28;20062;-69
2022/06/07 01:59:43;;;;;;;9.35;7.43;;;;;;;15.75;100.00;96607.13;4991343;28;20042;-70
2022/06/07 02:02:10;;;;;;;8.63;6.47;;;;;;;15.84;100.00;96607.47;4989249;28;20087;-69
2022/06/07 02:04:39;;;;;;;10.30;7.13;;;;;;;15.81;100.00;96600.78;4993327;28;20411;-67
2022/06/07 02:07:06;;;;;;;8.13;6.78;;;;;;;15.82;100.00;96599.59;4985633;28;20128;-69
2022/06/07 02:09:32;;;;;;;9.80;7.18;;;;;;;15.85;100.00;96600.78;5001348;28;20073;-67
2022/06/07 02:11:59;;;;;;;13.43;7.20;;;;;;;15.95;100.00;96590.84;4998471;28;20131;-66
2022/06/07 02:14:24;;;;;;;12.88;7.50;;;;;;;15.88;100.00;96594.44;4989020;28;20077;-68
2022/06/07 02:16:50;;;;;;;9.45;6.30;;;;;;;16.00;100.00;96584.88;4990909;28;20045;-69
2022/06/07 02:19:15;;;;;;;10.13;7.60;;;;;;;15.88;100.00;96583.38;4987493;28;20046;-67
2022/06/07 02:21:41;;;;;;;10.32;6.60;;;;;;;15.80;100.00;96582.66;5013730;28;20070;-66
2022/06/07 02:24:07;;;;;;;9.15;6.47;;;;;;;15.85;100.00;96571.16;4987688;28;20081;-70
2022/06/07 02:26:32;;;;;;;9.77;6.38;;;;;;;15.88;100.00;96561.28;4999312;28;20136;-66
2022/06/07 02:29:07;;;;;;;9.48;6.60;;;;;;;15.85;100.00;96562.88;4997534;28;20136;-67
2022/06/07 02:31:34;;;;;;;10.30;6.60;;;;;;;15.90;100.00;96571.94;5007049;28;20042;-65
2022/06/07 02:34:01;;;;;;;9.98;7.20;;;;;;;15.69;100.00;96559.81;4990591;28;20394;-65
2022/06/07 02:36:31;;;;;;;9.10;7.10;;;;;;;15.64;100.00;96561.00;4987479;28;20057;-65
2022/06/07 02:38:57;;;;;;;9.57;6.65;;;;;;;15.64;100.00;96557.47;4997732;28;20050;-67
2022/06/07 02:41:25;;;;;;;10.13;6.53;;;;;;;15.72;100.00;96553.50;5016316;28;20142;-66
2022/06/07 02:43:50;;;;;;;11.35;7.22;;;;;;;15.60;100.00;96560.25;4974341;28;20566;-67
2022/06/07 02:46:16;;;;;;;12.45;8.10;;;;;;;15.53;100.00;96559.50;4986258;28;20133;-65
2022/06/07 02:48:41;;;;;;;11.80;7.80;;;;;;;15.59;100.00;96552.38;4996309;28;20034;-65
2022/06/07 02:51:06;;;;;;;17.08;8.25;;;;;;;15.42;100.00;96554.03;4989892;28;20080;-66
2022/06/07 02:53:32;;;;;;;11.48;8.68;;;;;;;15.22;100.00;96551.78;4995482;28;20034;-64
2022/06/07 02:55:58;;;;;;;12.68;8.60;;;;;;;15.19;100.00;96549.81;4990233;28;20064;-67
2022/06/07 02:58:24;;;;;;;13.55;8.73;;;;;;;15.19;100.00;96551.78;4976309;28;20038;-67
2022/06/07 03:00:50;;;;;;;13.05;8.18;;;;;;;15.32;100.00;96549.34;4997890;28;20106;-66
2022/06/07 03:03:16;;;;;;;10.65;7.80;;;;;;;15.52;100.00;96560.69;4996480;28;20054;-67
2022/06/07 03:05:41;;;;;;;10.07;7.43;;;;;;;15.58;100.00;96561.84;5000165;28;20057;-69
2022/06/07 03:08:07;;;;;;;11.90;8.30;;;;;;;15.58;100.00;96561.84;4990387;28;20044;-70
2022/06/07 03:10:33;;;;;;;8.73;7.28;;;;;;;15.64;100.00;96561.00;4998085;28;20084;-65
2022/06/07 03:12:58;;;;;;;11.40;7.43;;;;;;;15.68;100.00;96561.78;5009380;28;20062;-66
2022/06/07 03:15:24;;;;;;;9.95;7.47;;;;;;;15.72;100.00;96559.00;4997975;28;20607;-67
2022/06/07 03:17:49;;;;;;;9.35;7.35;;;;;;;15.71;100.00;96559.41;5012805;28;20053;-71
2022/06/07 03:20:14;;;;;;;9.07;6.82;;;;;;;15.59;100.00;96563.41;4999543;28;20037;-70
2022/06/07 03:22:40;;;;;;;10.52;7.43;;;;;;;15.56;100.00;96561.47;5010475;28;20042;-67
2022/06/07 03:25:07;;;;;;;9.43;6.68;;;;;;;15.64;100.00;96568.50;5003618;28;20033;-68
2022/06/07 03:27:36;;;;;;;10.30;7.78;;;;;;;15.70;100.00;96561.41;5008012;28;20042;-69
2022/06/07 03:30:06;;;;;;;12.00;7.40;;;;;;;15.68;100.00;96555.47;5009575;28;20048;-69
2022/06/07 03:32:32;;;;;;;10.38;6.85;;;;;;;15.74;100.00;96564.13;5007451;28;20109;-69
2022/06/07 03:34:57;;;;;;;9.00;6.28;;;;;;;15.78;100.00;96571.22;4991820;28;20030;-68
2022/06/07 03:37:23;;;;;;;14.43;7.45;;;;;;;15.91;100.00;96562.47;5000354;28;20084;-67
2022/06/07 03:39:48;;;;;;;12.02;7.22;;;;;;;15.91;100.00;96565.22;4994673;28;20041;-69
2022/06/07 03:42:14;;;;;;;7.70;6.40;;;;;;;15.83;100.00;96568.03;4988612;28;20041;-65
2022/06/07 03:44:40;;;;;;;9.35;7.43;;;;;;;15.84;100.00;96572.34;4995505;28;20050;-65
2022/06/07 03:47:06;;;;;;;9.27;6.68;;;;;;;15.87;100.00;96573.53;4989266;28;20467;-65
2022/06/07 03:49:32;;;;;;;11.32;7.60;;;;;;;15.80;100.00;96574.34;4993263;28;20066;-65
2022/06/07 03:51:58;;;;;;;9.55;6.60;;;;;;;15.80;100.00;96579.09;4994227;28;20050;-67
2022/06/07 03:54:23;;;;;;;9.45;6.70;;;;;;;15.94;100.00;96583.75;4986075;28;20832;-67
2022/06/07 03:56:49;;;;;;;11.73;7.47;;;;;;;15.95;100.00;96580.56;4990851;28;20037;-68
2022/06/07 03:59:15;;;;;;;10.65;6.82;;;;;;;15.97;100.00;96578.22;4988186;28;20042;-69
2022/06/07 04:01:41;;;;;;;8.50;6.70;;;;;;;16.08;100.00;96580.09;4991485;28;20046;-67
2022/06/07 04:04:08;;;;;;;9.95;7.10;;;;;;;16.17;100.00;96585.94;4989757;28;20037;-66
2022/06/07 04:06:40;;;;;;;13.30;6.43;;;;;;;16.19;100.00;96580.81;4998275;28;20053;-65
2022/06/07 04:09:06;;;;;;;10.07;6.22;;;;;;;16.20;100.00;96571.31;4987486;28;20041;-66
2022/06/07 04:11:32;;;;;;;10.63;6.53;;;;;;;16.18;100.00;96566.19;4990609;28;20108;-66
2022/06/07 04:13:58;;;;;;;9.48;5.90;;;;;;;16.18;100.00;96570.94;4989968;28;20096;-67
2022/06/07 04:16:28;;;;;;;6.35;5.10;;;;;;;16.15;100.00;96571.75;5011396;28;20549;-66
2022/06/07 04:18:54;;;;;;;7.25;6.05;;;;;;;16.16;100.00;96570.56;4996143;28;20038;-66
2022/06/07 04:21:20;;;;;;;8.27;6.03;;;;;;;16.15;100.00;96569.00;4982318;28;20116;-65
2022/06/07 04:23:45;;;;;;;13.05;6.28;;;;;;;15.76;100.00;96572.81;4989969;28;20046;-67
2022/06/07 04:26:18;;;;;;;8.90;6.72;;;;;;;15.74;100.00;96577.94;4985996;28;20505;-66
2022/06/07 04:28:43;;;;;;;9.20;5.95;;;;;;;15.81;100.00;96581.47;4988351;28;20050;-65
2022/06/07 04:31:11;;;;;;;8.23;6.65;;;;;;;15.79;100.00;96581.09;4986795;28;20042;-67
2022/06/07 04:33:36;;;;;;;11.55;7.30;;;;;;;15.77;100.00;96586.22;4995379;28;20097;-68
2022/06/07 04:36:07;;;;;;;12.30;6.60;;;;;;;15.67;100.00;96582.28;4988978;28;20077;-70
2022/06/07 04:38:33;;;;;;;10.77;7.68;;;;;;;15.80;100.00;96598.44;5018339;28;20033;-68
2022/06/07 04:40:58;;;;;;;7.55;6.55;;;;;;;15.74;100.00;96595.31;5019609;28;20038;-67
2022/06/07 04:43:23;;;;;;;11.05;7.22;;;;;;;15.68;100.00;96592.16;4985948;28;20046;-67
2022/06/07 04:45:49;;;;;;;16.70;8.02;;;;;;;15.60;100.00;96609.94;4975069;28;20043;-68
2022/06/07 04:48:16;;;;;;;10.25;7.57;;;;;;;15.55;100.00;96613.13;4988453;28;20037;-67
2022/06/07 04:50:41;;;;;;;10.07;7.68;;;;;;;15.57;100.00;96612.72;4994185;28;20076;-67
2022/06/07 04:53:07;;;;;;;9.45;7.03;;;;;;;15.67;100.00;96620.16;4992618;28;20041;-69
2022/06/07 04:55:32;;;;;;;9.90;7.32;;;;;;;15.79;100.00;96608.69;4993295;28;20196;-68
2022/06/07 04:57:57;;;;;;;11.18;6.93;;;;;;;15.86;100.00;96618.91;5023321;28;20561;-67
2022/06/07 05:00:23;;;;;;;9.82;6.80;;;;;;;15.78;100.00;96617.38;4989800;28;20159;-70
2022/06/07 05:02:49;;;;;;;8.20;6.00;;;;;;;15.80;100.00;96620.53;4998225;28;20402;-70
2022/06/07 05:05:16;;;;;;;12.00;6.82;;;;;;;15.84;100.00;96624.03;4988142;28;20042;-69
2022/06/07 05:07:42;;;;;;;7.63;6.07;;;;;;;15.88;100.00;96622.03;4991770;28;21104;-67
2022/06/07 05:10:12;;;;;;;9.90;6.30;;;;;;;15.93;100.00;96629.13;5001784;28;20048;-67
2022/06/07 05:12:38;;;;;;;9.10;6.35;;;;;;;15.88;100.00;96622.03;4993666;28;20041;-67
2022/06/07 05:15:06;;;;;;;11.57;6.50;;;;;;;15.81;100.00;96622.09;4999453;28;20034;-67
2022/06/07 05:17:31;;;;;;;9.27;7.30;;;;;;;15.73;100.00;96620.53;4995333;28;20046;-67
2022/06/07 05:19:57;;;;;;;8.25;6.55;;;;;;;15.73;100.00;96629.59;4996275;28;20108;-68
2022/06/07 05:22:24;;;;;;;14.48;7.28;;;;;;;15.58;100.00;96634.41;4993358;28;20839;-66
2022/06/07 05:24:50;;;;;;;9.48;6.10;;;;;;;15.85;100.00;96633.91;5015992;28;20062;-67
2022/06/07 05:27:19;;;;;;;8.95;6.25;;;;;;;16.02;100.00;96635.00;4984450;28;20531;-65
2022/06/07 05:29:48;;;;;;;7.57;6.13;;;;;;;16.20;100.00;96637.63;4998883;28;20076;-68
2022/06/07 05:32:14;;;;;;;8.23;5.43;;;;;;;16.20;100.00;96643.94;4991393;28;20091;-67
2022/06/07 05:34:40;;;;;;;7.65;5.43;;;;;;;16.28;100.00;96636.41;4990749;28;20042;-68
2022/06/07 05:37:06;;;;;;;6.32;4.68;;;;;;;16.31;100.00;96638.34;4992687;28;20044;-67
2022/06/07 05:39:31;;;;;;;7.10;4.68;;;;;;;16.23;100.00;96647.88;5016367;28;20940;-66
2022/06/07 05:41:57;;;;;;;6.45;4.40;;;;;;;16.17;100.00;96646.72;4998207;28;20054;-68
2022/06/07 05:44:25;;;;;;;6.53;4.07;;;;;;;16.14;100.00;96651.09;4992177;28;20054;-67
2022/06/07 05:46:52;;;;;;;4.47;3.42;;;;;;;16.10;100.00;96658.63;4992790;28;20058;-67
2022/06/07 05:49:18;;;;;;;6.88;4.43;;;;;;;16.05;100.00;96657.06;4985757;28;20191;-68
2022/06/07 05:51:44;;;;;;;6.30;4.10;;;;;;;16.13;100.00;96659.78;4995385;28;20042;-67
2022/06/07 05:54:12;;;;;;;6.80;3.83;;;;;;;16.18;100.00;96662.91;4986791;28;20144;-67
2022/06/07 05:56:38;;;;;;;5.90;3.80;;;;;;;16.24;100.00;96668.78;4993519;28;20450;-68
2022/06/07 05:59:07;;;;;;;4.65;3.53;;;;;;;16.20;100.00;96666.03;4991321;28;20041;-68
2022/06/07 06:01:33;;;;;;;4.70;3.15;;;;;;;16.19;100.00;96677.53;4990857;28;20046;-67
2022/06/07 06:04:03;;;;;;;5.75;3.50;;;;;;;16.21;100.00;96686.19;4998148;28;20475;-67
2022/06/07 06:06:29;;;;;;;6.18;4.10;;;;;;;16.19;100.00;96683.84;4995393;28;20073;-66
2022/06/07 06:11:39;;;;;;;5.30;3.80;;;;;;;16.07;100.00;96689.81;5004500;28;20046;-65
2022/06/07 06:14:04;;;;;;;4.18;3.10;;;;;;;16.01;100.00;96694.97;5006782;28;20348;-68
2022/06/07 06:16:30;;;;;;;4.35;3.15;;;;;;;15.99;100.00;96696.56;5005089;28;20162;-68
2022/06/07 06:18:58;;;;;;;4.20;2.88;;;;;;;15.91;100.00;96695.03;5002338;28;20127;-66
2022/06/07 06:21:26;;;;;;;5.63;3.10;;;;;;;15.98;100.00;96695.78;5002954;28;20297;-66
2022/06/07 06:23:52;;;;;;;6.85;3.25;;;;;;;15.90;100.00;96697.03;5014946;28;20490;-66
2022/06/07 06:26:20;;;;;;;5.85;3.60;;;;;;;16.09;100.00;96692.19;4995130;28;20045;-66
2022/06/07 06:28:46;;;;;;;3.58;3.00;;;;;;;16.15;100.00;96693.31;5009108;28;20446;-66
2022/06/07 06:31:13;;;;;;;5.78;3.00;;;;;;;16.28;100.00;96685.34;4996763;28;20046;-67
2022/06/07 06:33:41;;;;;;;3.25;2.80;;;;;;;16.30;100.00;96694.81;5000037;28;20057;-68
2022/06/07 06:36:08;;;;;;;3.22;2.72;;;;;;;16.36;100.00;96695.19;4986017;28;20050;-66
2022/06/07 06:38:34;;;;;;;4.10;2.65;;;;;;;16.49;100.00;96692.72;5003305;28;20404;-66
2022/06/07 06:41:07;;;;;;;3.88;2.78;;;;;;;16.46;100.00;96697.09;5008350;28;20109;-65
2022/06/07 06:43:33;;;;;;;6.88;2.70;;;;;;;16.58;100.00;96699.38;4996900;28;20046;-65
2022/06/07 06:46:10;;;;;;;5.22;3.05;;;;;;;16.76;100.00;96702.00;5001131;28;20127;-65
2022/06/07 06:48:37;;;;;;;6.05;3.17;;;;;;;16.98;100.00;96707.38;5001243;28;20088;-66
2022/06/07 06:51:05;;;;;;;3.58;2.55;;;;;;;17.41;100.00;96687.56;5004894;28;20046;-71
2022/06/07 06:53:34;;;;;;;8.63;2.50;;;;;;;18.45;100.00;96697.34;5012843;28;20129;-67
2022/06/07 06:55:59;;;;;;;5.77;2.13;;;;;;;19.02;100.00;96703.25;5012234;28;20139;-67
2022/06/07 06:58:26;;;;;;;7.20;3.95;;;;;;;19.01;100.00;96710.78;5005583;28;20298;-67
2022/06/07 07:01:06;;;;;;;2.45;1.70;;;;;;;19.26;100.00;96704.78;5010422;28;20073;-66
2022/06/07 07:03:33;;;;;;;2.05;1.50;;;;;;;18.97;100.00;96712.06;5008310;28;20069;-66
2022/06/07 07:06:00;;;;;;;2.25;1.67;;;;;;;18.91;100.00;96712.53;5003656;28;20047;-67
2022/06/07 07:08:26;;;;;;;3.22;2.05;;;;;;;18.40;100.00;96724.78;5007545;28;20110;-67
2022/06/07 07:11:11;;;;;;;3.47;1.75;;;;;;;17.90;100.00;96729.00;5006083;28;20081;-69
2022/06/07 07:13:38;;;;;;;4.30;1.80;;;;;;;17.87;100.00;96733.38;5005249;28;20042;-69
2022/06/07 07:16:07;;;;;;;2.90;1.55;;;;;;;18.22;100.00;96734.16;5021408;28;20072;-74
2022/06/07 07:18:33;;;;;;;2.75;1.77;;;;;;;18.34;100.00;96735.56;5016371;28;20034;-70
2022/06/07 07:21:03;;;;;;;2.08;1.73;;;;;;;18.12;100.00;96737.84;5009967;28;20037;-66
2022/06/07 07:23:28;;;;;;;3.03;2.10;;;;;;;18.40;100.00;96738.63;5022765;28;20042;-69
2022/06/07 07:26:01;;;;;;;2.63;1.70;;;;;;;18.31;100.00;96734.41;4999937;28;20045;-66
2022/06/07 07:28:26;;;;;;;6.10;2.78;;;;;;;18.28;100.00;96731.69;4995421;28;20494;-68
2022/06/07 07:31:03;;;;;;;2.95;2.05;;;;;;;18.30;100.00;96738.38;4999021;28;20046;-69
2022/06/07 07:33:29;;;;;;;5.13;2.13;;;;;;;18.44;100.00;96748.50;4999245;28;20069;-66
2022/06/07 07:35:55;;;;;;;5.10;1.98;;;;;;;18.27;100.00;96746.75;5001167;28;20092;-65
2022/06/07 07:38:21;;;;;;;3.90;1.80;;;;;;;18.18;100.00;96741.69;4996075;28;20064;-66
2022/06/07 07:40:46;;;;;;;2.25;1.63;;;;;;;18.21;100.00;96745.66;5000729;28;20037;-67
2022/06/07 07:43:12;;;;;;;14.43;4.35;;;;;;;18.17;100.00;96742.91;4996061;28;20037;-65
2022/06/07 07:45:38;;;;;;;5.72;2.90;;;;;;;18.08;100.00;96743.41;5000599;28;20188;-66
2022/06/07 07:48:04;;;;;;;3.22;1.90;;;;;;;17.69;100.00;96741.88;4995609;28;20129;-71
2022/06/07 07:50:29;;;;;;;3.00;2.13;;;;;;;17.72;100.00;96734.72;4999807;28;20037;-66
2022/06/07 07:52:58;;;;;;;4.30;2.35;;;;;;;17.99;100.00;96747.88;4998529;28;20045;-67
2022/06/07 07:55:23;;;;;;;2.53;2.00;;;;;;;18.18;100.00;96738.94;4994266;28;20128;-66
2022/06/07 07:57:49;;;;;;;2.90;1.90;;;;;;;18.37;100.00;96736.72;5000963;28;20196;-66
2022/06/07 08:00:14;;;;;;;2.45;1.92;;;;;;;18.17;100.00;96737.38;4993225;28;20094;-68
2022/06/07 08:02:40;;;;;;;2.97;2.10;;;;;;;18.31;100.00;96737.19;5000932;28;20048;-69
2022/06/07 08:05:06;;;;;;;3.28;2.13;;;;;;;18.44;100.00;96739.38;4996097;28;20076;-68
2022/06/07 08:07:32;;;;;;;4.57;2.50;;;;;;;18.47;100.00;96744.88;4998966;28;20044;-68
2022/06/07 08:10:00;;;;;;;4.30;2.08;;;;;;;18.57;100.00;96737.59;5000066;28;20046;-68
2022/06/07 08:12:26;;;;;;;4.00;2.28;;;;;;;18.50;100.00;96740.50;4992597;28;20062;-69
2022/06/07 08:14:52;;;;;;;3.38;2.10;;;;;;;18.55;100.00;96740.03;5002138;28;20038;-69
2022/06/07 08:17:17;;;;;;;6.68;2.47;;;;;;;18.54;100.00;96739.22;5014635;28;20048;-68
2022/06/07 08:19:43;;;;;;;3.40;2.30;;;;;;;18.58;100.00;96730.84;5020635;28;20147;-67
2022/06/07 08:22:09;;;;;;;4.65;2.40;;;;;;;18.64;100.00;96731.97;5017061;28;20759;-69
2022/06/07 08:24:35;;;;;;;5.28;1.92;;;;;;;19.13;100.00;96734.38;5018225;28;20045;-69
2022/06/07 08:27:00;;;;;;;6.15;3.33;;;;;;;20.41;100.00;96730.31;5004870;28;20431;-69
2022/06/07 08:29:26;;;;;;;3.20;2.20;;;;;;;21.60;97.42;96729.50;5010277;28;20037;-66
2022/06/07 08:31:52;;;;;;;4.32;2.30;;;;;;;22.46;89.45;96729.88;5005985;28;20038;-68
2022/06/07 08:39:46;;;;;;;8.80;2.50;;;;;;;20.37;97.23;96739.97;5003341;28;20390;-67
2022/06/07 08:42:18;;;;;;;8.93;2.90;;;;;;;20.17;100.00;96740.00;4998053;28;20034;-67
2022/06/07 08:44:51;;;;;;;4.47;2.25;;;;;;;19.85;99.99;96735.88;5003571;28;20053;-67
2022/06/07 08:47:46;;;;;;;5.47;2.50;;;;;;;19.62;100.00;96734.69;4995991;28;20040;-67
2022/06/07 08:50:23;;;;;;;6.72;2.05;;;;;;;19.61;100.00;96730.34;4996976;28;20042;-67
2022/06/07 08:52:53;;;;;;;3.50;2.35;;;;;;;19.02;100.00;96736.56;5000524;28;20120;-67
2022/06/07 08:55:27;;;;;;;3.50;2.33;;;;;;;18.60;100.00;96734.00;4998017;28;20038;-68
2022/06/07 08:57:57;;;;;;;6.18;2.45;;;;;;;18.39;100.00;96726.78;5001453;28;20068;-68
2022/06/07 09:00:31;;;;;;;3.05;1.73;;;;;;;18.12;100.00;96726.75;4996420;28;20096;-68
2022/06/07 09:03:15;;;;;;;4.47;2.50;;;;;;;17.95;100.00;96728.53;5001656;28;20034;-69
2022/06/07 09:05:40;;;;;;;5.28;2.20;;;;;;;17.63;100.00;96723.34;5001306;28;20336;-67
2022/06/07 09:08:09;;;;;;;4.55;2.95;;;;;;;17.38;100.00;96716.88;4998418;28;20096;-67
2022/06/07 09:13:22;;;;;;;5.97;2.55;;;;;;;17.70;100.00;96712.97;4996833;28;20034;-66
2022/06/07 09:15:52;;;;;;;5.65;2.50;;;;;;;18.19;100.00;96714.78;5003583;28;20087;-66
2022/06/07 09:18:19;;;;;;;2.70;2.00;;;;;;;18.78;100.00;96714.31;4999220;28;20044;-67
2022/06/07 09:20:50;;;;;;;6.35;3.40;;;;;;;19.15;100.00;96714.53;5004181;28;20578;-67
2022/06/07 09:23:23;;;;;;;2.70;1.83;;;;;;;19.22;98.81;96720.72;5002593;28;20046;-66
2022/06/07 09:25:52;;;;;;;2.58;1.70;;;;;;;19.32;98.48;96720.97;5001663;28;20677;-66
2022/06/07 09:28:26;;;;;;;4.28;2.05;;;;;;;19.06;100.00;96715.06;4987784;28;20392;-69
2022/06/07 09:31:01;;;;;;;2.70;2.00;;;;;;;18.86;100.00;96713.00;4998080;28;20124;-68
2022/06/07 09:33:31;;;;;;;3.38;2.15;;;;;;;18.48;100.00;96704.06;4983798;28;20045;-70
2022/06/07 09:36:09;;;;;;;4.40;2.40;;;;;;;18.63;100.00;96713.72;5003515;28;20053;-67
2022/06/07 09:38:40;;;;;;;2.38;1.85;;;;;;;18.44;100.00;96709.66;4998631;28;20038;-69
2022/06/07 09:44:20;;;;;;;3.00;2.15;;;;;;;18.43;100.00;96705.31;5012578;28;20732;-69
2022/06/07 09:47:02;;;;;;;2.53;1.77;;;;;;;18.41;100.00;96715.28;4999444;28;20054;-69
2022/06/07 09:49:40;;;;;;;3.88;2.05;;;;;;;18.50;100.00;96707.22;4997080;28;20054;-69
2022/06/07 09:52:25;;;;;;;3.13;1.95;;;;;;;18.30;100.00;96710.66;4994716;28;20061;-65
2022/06/07 09:55:01;;;;;;;6.97;2.78;;;;;;;18.51;100.00;96708.75;5000339;28;20065;-67
2022/06/07 09:57:57;;;;;;;3.30;2.00;;;;;;;18.39;100.00;96707.38;4992231;28;20155;-68
2022/06/07 10:00:38;;;;;;;3.15;2.35;;;;;;;18.51;100.00;96708.75;4983752;28;20045;-66
2022/06/07 10:03:24;;;;;;;2.25;1.55;;;;;;;18.75;100.00;96701.28;4988846;28;20053;-62
2022/06/07 10:06:05;;;;;;;3.35;1.90;;;;;;;18.78;100.00;96697.66;4992587;28;20046;-68
2022/06/07 10:08:39;;;;;;;4.00;1.73;;;;;;;19.62;99.77;96697.78;4998105;28;20145;-67
2022/06/07 10:11:12;;;;;;;3.05;1.50;;;;;;;19.59;95.06;96691.09;4991515;28;20037;-64
2022/06/07 10:13:57;;;;;;;2.40;1.50;;;;;;;19.70;95.13;96688.13;4977850;28;20050;-67
2022/06/07 10:16:44;;;;;;;2.40;1.27;;;;;;;20.77;81.12;96692.59;4985754;28;20766;-67
2022/06/07 10:19:34;;;;;;;2.88;1.13;;;;;;;20.61;83.01;96685.78;4992953;28;20398;-66
2022/06/07 10:22:08;;;;;;;2.47;1.30;;;;;;;20.53;85.43;96675.25;4994293;28;20046;-66
2022/06/07 10:24:58;;;;;;;3.78;1.50;;;;;;;20.30;84.79;96662.25;4996858;28;20045;-65
2022/06/07 10:27:32;;;;;;;2.92;1.30;;;;;;;20.42;89.45;96670.72;4990954;28;20517;-67
2022/06/07 10:30:22;;;;;;;3.20;1.10;;;;;;;20.49;86.71;96666.19;4998801;28;20050;-67
2022/06/07 10:33:02;;;;;;;;;;;;;;;20.40;84.93;96667.56;4992344;28;20045;-67
2022/06/07 10:35:56;;;;;;;1.63;1.10;;;;;;;19.79;90.23;96665.31;4989973;28;20645;-66
2022/06/07 10:38:35;;;;;;;1.67;1.00;;;;;;;19.81;89.96;96676.81;4993288;28;20054;-69
2022/06/07 10:41:23;;;;;;;2.83;0.90;;;;;;;19.82;88.54;96681.16;4997736;28;20046;-65
2022/06/07 10:43:57;;;;;;;1.50;1.00;;;;;;;19.57;89.56;96676.06;4994183;28;20499;-67
2022/06/07 10:46:25;;;;;;;1.23;0.90;;;;;;;19.97;88.82;96667.72;4989919;28;20089;-67
2022/06/07 10:49:06;;;;;;;2.85;1.23;;;;;;;20.79;83.64;96657.53;4996844;28;20096;-66
2022/06/07 10:54:31;;;;;;;1.65;0.90;;;;;;;21.33;80.92;96666.50;4989966;28;20060;-67
2022/06/07 10:57:21;;;;;;;5.70;1.83;;;;;;;21.66;81.53;96647.72;4999410;28;20117;-66
2022/06/07 10:59:51;;;;;;;9.68;4.55;;;;;;;21.58;79.62;96647.13;4992644;28;20056;-68
2022/06/07 11:02:45;;;;;;;3.58;2.38;;;;;;;21.52;76.17;96636.97;4994739;28;20148;-67
2022/06/07 11:11:08;;;;;;;6.30;3.80;;;;;;;21.73;72.32;96639.16;4996904;28;20367;-65
2022/06/07 11:13:43;;;;;;;4.97;2.80;;;;;;;21.71;75.89;96636.00;4991797;28;21332;-66
2022/06/07 11:16:20;;;;;;;4.15;2.20;;;;;;;22.01;72.85;96636.75;4986468;28;20054;-66
2022/06/07 11:18:46;;;;;;;1.98;0.98;;;;;;;21.94;76.60;96631.38;4981995;28;20041;-67
2022/06/07 11:21:30;;;;;;;4.60;1.45;;;;;;;21.85;73.88;96634.81;4989313;28;20041;-66
2022/06/07 11:24:05;;;;;;;2.45;1.00;;;;;;;21.46;74.95;96628.34;4999167;28;20050;-68
2022/06/07 11:27:04;;;;;;;2.85;1.40;;;;;;;21.11;77.65;96628.09;5004067;28;20070;-67
2022/06/07 11:29:32;;;;;;;3.78;1.65;;;;;;;20.85;82.35;96627.19;4970509;28;20108;-66
2022/06/07 11:32:01;;;;;;;2.47;1.50;;;;;;;20.75;79.96;96617.09;4992575;28;20395;-67
2022/06/07 11:34:31;;;;;;;2.80;0.90;;;;;;;20.72;77.27;96623.53;4992001;28;20108;-66
2022/06/07 11:37:08;;;;;;;1.02;0.80;;;;;;;20.33;77.74;96623.25;4998633;28;20405;-66
2022/06/07 11:39:40;;;;;;;1.70;1.15;;;;;;;20.74;76.37;96627.47;4996601;28;20057;-67
2022/06/07 11:42:19;;;;;;;1.42;1.08;;;;;;;20.40;81.97;96627.84;4992161;28;20052;-68
2022/06/07 11:45:18;;;;;;;5.10;1.27;;;;;;;20.66;79.58;96616.94;4992485;28;20679;-68
2022/06/07 11:47:43;;;;;;;2.92;1.58;;;;;;;20.75;80.87;96620.66;4995536;28;20053;-67
2022/06/07 11:50:44;;;;;;;3.45;1.25;;;;;;;20.93;78.53;96616.63;4988358;28;20038;-67
2022/06/07 11:53:25;;;;;;;2.50;1.20;;;;;;;21.33;76.12;96619.16;5007111;28;20161;-67
2022/06/07 11:56:00;;;;;;;2.47;1.00;;;;;;;21.46;77.82;96610.84;4995570;28;20574;-67
2022/06/07 11:58:53;;;;;;;1.75;1.15;;;;;;;21.30;76.29;96608.88;4991198;28;20058;-66
2022/06/07 12:01:32;;;;;;;1.48;1.20;;;;;;;21.16;77.84;96601.72;4993839;28;20494;-67
2022/06/07 12:04:33;;;;;;;1.43;1.13;;;;;;;20.97;81.34;96597.84;5001190;28;20109;-66
2022/06/07 12:07:06;;;;;;;2.47;1.25;;;;;;;21.13;77.19;96605.38;5000648;28;20572;-66